Terminal Aerodrome Forecast
Issued by NWS Topeka, KS

Home | Current Version | Previous Version | Text Only | Print | Product List | Glossary On
Versions: 1 2 3 4 5 6 7 8 9 10 11 12 13 14
227
FTUS43 KTOP 161741
TAFTOP
TAF
KTOP 161741Z 1618/1718 20011G15KT P6SM SKC
     FM162300 17006KT P6SM SCT150
     FM170900 17006KT P6SM VCSH SCT035
     FM171200 19005KT P6SM OVC035
     FM171500 VRB03KT P6SM OVC030=

USA.gov is the U.S. government's official web portal to all federal, state and local government web resources and services.